Time;durP1;ratioP1;P1;durP2;ratioP2;P2;SDS_P1;SDS_P2;PMS_P1;PMS_P2;Temp;Humidity;BMP_temperature;BMP_pressure;BME280_temperature;BME280_humidity;BME280_pressure;Samples;Min_cycle;Max_cycle;Signal;HPM_P1;HPM_P2
2022/08/16 00:01:37;;;;;;;21.55;13.15;;;;;;;;;;5071101;28;20047;-38
2022/08/16 00:04:03;;;;;;;21.90;13.30;;;;;;;;;;5060604;28;20052;-40
2022/08/16 00:06:31;;;;;;;19.42;12.88;;;;;;;;;;5067229;28;20040;-39
2022/08/16 00:08:59;;;;;;;20.60;13.67;;;;;;;;;;5076358;28;20056;-39
2022/08/16 00:11:26;;;;;;;23.50;13.23;;;;;;;;;;5067250;28;20039;-39
2022/08/16 00:13:53;;;;;;;22.33;12.85;;;;;;;;;;5063235;28;20082;-39
2022/08/16 00:19:25;;;;;;;21.17;12.80;;;;;;;;;;5059895;28;20474;-39
2022/08/16 00:21:52;;;;;;;18.87;12.60;;;;;;;;;;5062329;28;20569;-39
2022/08/16 00:24:21;;;;;;;21.60;13.18;;;;;;;;;;5056409;28;20045;-40
2022/08/16 00:26:47;;;;;;;27.27;13.20;;;;;;;;;;5061173;28;20086;-39
2022/08/16 00:29:15;;;;;;;22.33;13.80;;;;;;;;;;5067376;28;20044;-39
2022/08/16 00:31:42;;;;;;;19.48;12.88;;;;;;;;;;5062444;28;20037;-39
2022/08/16 00:34:08;;;;;;;20.23;12.53;;;;;;;;;;5058783;28;20043;-39
2022/08/16 00:36:36;;;;;;;23.52;13.73;;;;;;;;;;5059236;28;20059;-39
2022/08/16 00:39:03;;;;;;;19.25;13.20;;;;;;;;;;5065423;28;20048;-40
2022/08/16 00:41:31;;;;;;;20.73;13.73;;;;;;;;;;5064444;28;20673;-40
2022/08/16 00:43:59;;;;;;;22.38;14.05;;;;;;;;;;5066921;28;20056;-39
2022/08/16 00:46:29;;;;;;;21.33;13.93;;;;;;;;;;5051310;28;20109;-41
2022/08/16 00:48:56;;;;;;;25.00;14.18;;;;;;;;;;5068461;28;20052;-39
2022/08/16 00:51:24;;;;;;;21.40;14.10;;;;;;;;;;5045866;28;20115;-39
2022/08/16 00:53:52;;;;;;;21.92;12.93;;;;;;;;;;5067553;28;20037;-39
2022/08/16 00:56:20;;;;;;;20.42;13.50;;;;;;;;;;5059031;28;20040;-39
2022/08/16 00:58:48;;;;;;;21.97;13.67;;;;;;;;;;5048148;28;20048;-39
2022/08/16 01:01:16;;;;;;;21.45;13.75;;;;;;;;;;5072048;28;20040;-40
2022/08/16 01:03:44;;;;;;;21.80;14.32;;;;;;;;;;5054651;28;20036;-39
2022/08/16 01:06:11;;;;;;;21.52;15.32;;;;;;;;;;5071977;28;20135;-40
2022/08/16 01:08:38;;;;;;;24.20;15.48;;;;;;;;;;5045440;28;20044;-40
2022/08/16 01:11:06;;;;;;;21.67;14.90;;;;;;;;;;5071174;28;20086;-39
2022/08/16 01:13:33;;;;;;;23.60;14.50;;;;;;;;;;5060130;28;20082;-39
2022/08/16 01:16:04;;;;;;;24.42;15.10;;;;;;;;;;5057865;28;20052;-42
2022/08/16 01:18:33;;;;;;;25.25;15.18;;;;;;;;;;5067346;28;20037;-39
2022/08/16 01:21:04;;;;;;;22.60;15.40;;;;;;;;;;5064565;28;20917;-38
2022/08/16 01:23:34;;;;;;;23.67;14.77;;;;;;;;;;5061866;28;20403;-38
2022/08/16 01:26:02;;;;;;;21.75;15.43;;;;;;;;;;5067115;28;20502;-39
2022/08/16 01:28:30;;;;;;;24.52;15.63;;;;;;;;;;5060715;28;20048;-39
2022/08/16 01:30:57;;;;;;;26.20;15.77;;;;;;;;;;5060385;28;20059;-39
2022/08/16 01:33:24;;;;;;;22.67;14.85;;;;;;;;;;5053387;28;20036;-39
2022/08/16 01:35:52;;;;;;;26.37;15.20;;;;;;;;;;5073306;28;20063;-39
2022/08/16 01:38:20;;;;;;;23.23;15.02;;;;;;;;;;5055818;28;20060;-39
2022/08/16 01:40:47;;;;;;;23.67;15.77;;;;;;;;;;5064068;28;20125;-39
2022/08/16 01:43:15;;;;;;;24.10;15.77;;;;;;;;;;5063256;28;20040;-39
2022/08/16 01:45:42;;;;;;;23.20;15.07;;;;;;;;;;5053333;28;20058;-39
2022/08/16 01:48:09;;;;;;;24.73;15.83;;;;;;;;;;5050161;28;20054;-38
2022/08/16 01:50:36;;;;;;;23.92;16.33;;;;;;;;;;5051015;28;20149;-38
2022/08/16 01:53:02;;;;;;;26.13;16.35;;;;;;;;;;5068207;28;20055;-39
2022/08/16 01:55:30;;;;;;;23.02;15.35;;;;;;;;;;5067119;28;20534;-41
2022/08/16 01:57:56;;;;;;;25.08;16.48;;;;;;;;;;5056499;28;20059;-39
2022/08/16 02:00:25;;;;;;;26.20;16.73;;;;;;;;;;5069630;28;20453;-39
2022/08/16 02:02:51;;;;;;;22.65;15.30;;;;;;;;;;5061507;28;20044;-39
2022/08/16 02:05:18;;;;;;;29.02;16.13;;;;;;;;;;5061855;28;20044;-41
2022/08/16 02:07:44;;;;;;;25.10;15.65;;;;;;;;;;5065976;28;20036;-38
2022/08/16 02:10:11;;;;;;;27.65;14.90;;;;;;;;;;5059476;28;20035;-38
2022/08/16 02:12:38;;;;;;;24.70;15.70;;;;;;;;;;5064694;28;20044;-39
2022/08/16 02:15:06;;;;;;;25.75;16.58;;;;;;;;;;5057830;28;20041;-39
2022/08/16 02:17:34;;;;;;;28.50;15.52;;;;;;;;;;5064224;28;20040;-38
2022/08/16 02:20:01;;;;;;;26.00;15.55;;;;;;;;;;5069885;28;20055;-39
2022/08/16 02:22:28;;;;;;;27.35;15.10;;;;;;;;;;5065834;28;20044;-38
2022/08/16 02:24:55;;;;;;;23.93;14.63;;;;;;;;;;5066276;28;20464;-39
2022/08/16 02:27:25;;;;;;;23.65;14.90;;;;;;;;;;5057512;28;20032;-39
2022/08/16 02:29:51;;;;;;;21.13;14.27;;;;;;;;;;5069020;28;20455;-38
2022/08/16 02:32:18;;;;;;;22.98;14.15;;;;;;;;;;5063078;28;20059;-39
2022/08/16 02:34:46;;;;;;;22.00;14.25;;;;;;;;;;5068456;28;20549;-38
2022/08/16 02:37:13;;;;;;;22.53;14.30;;;;;;;;;;5058815;28;20054;-38
2022/08/16 02:39:39;;;;;;;23.52;13.73;;;;;;;;;;5065672;28;20036;-39
2022/08/16 02:42:06;;;;;;;21.75;14.30;;;;;;;;;;5061176;28;20040;-41
2022/08/16 02:44:33;;;;;;;19.58;13.40;;;;;;;;;;5059646;28;21602;-39
2022/08/16 02:47:00;;;;;;;23.55;14.15;;;;;;;;;;5062482;28;20046;-39
2022/08/16 02:49:26;;;;;;;24.37;14.20;;;;;;;;;;5067755;28;20405;-39
2022/08/16 02:51:54;;;;;;;22.67;13.63;;;;;;;;;;5064066;28;20120;-39
2022/08/16 02:54:21;;;;;;;23.38;13.95;;;;;;;;;;5064443;28;20041;-38
2022/08/16 02:56:47;;;;;;;22.10;13.00;;;;;;;;;;5076334;28;20040;-38
2022/08/16 02:59:14;;;;;;;24.95;14.18;;;;;;;;;;5073515;28;20575;-39
2022/08/16 03:01:40;;;;;;;25.23;14.03;;;;;;;;;;5073619;28;20033;-39
2022/08/16 03:04:07;;;;;;;24.08;14.77;;;;;;;;;;5071479;28;20067;-39
2022/08/16 03:06:34;;;;;;;24.38;13.90;;;;;;;;;;5043499;28;20044;-39
2022/08/16 03:09:02;;;;;;;29.33;15.05;;;;;;;;;;5066982;28;20048;-38
2022/08/16 03:11:30;;;;;;;23.08;14.55;;;;;;;;;;5065929;28;20060;-38
2022/08/16 03:13:58;;;;;;;23.20;13.53;;;;;;;;;;5059881;28;20036;-39
2022/08/16 03:16:25;;;;;;;26.27;15.43;;;;;;;;;;5059351;28;20088;-39
2022/08/16 03:18:52;;;;;;;29.08;15.63;;;;;;;;;;5064707;28;20081;-38
2022/08/16 03:21:19;;;;;;;27.45;15.40;;;;;;;;;;5048546;28;20066;-39
2022/08/16 03:23:45;;;;;;;28.73;15.52;;;;;;;;;;5047164;28;20037;-40
2022/08/16 03:26:13;;;;;;;24.20;15.37;;;;;;;;;;5064522;28;20039;-38
2022/08/16 03:28:40;;;;;;;28.02;16.25;;;;;;;;;;5062001;28;20048;-39
2022/08/16 03:31:07;;;;;;;25.85;15.95;;;;;;;;;;5061514;28;20040;-39
2022/08/16 03:33:33;;;;;;;27.23;14.73;;;;;;;;;;5062633;28;20028;-38
2022/08/16 03:36:00;;;;;;;28.30;16.33;;;;;;;;;;5067146;28;20036;-39
2022/08/16 03:38:28;;;;;;;28.73;16.80;;;;;;;;;;5059009;28;20044;-39
2022/08/16 03:40:55;;;;;;;26.35;16.10;;;;;;;;;;5063648;28;20050;-39
2022/08/16 03:43:23;;;;;;;28.48;15.80;;;;;;;;;;5062499;28;20100;-38
2022/08/16 03:45:51;;;;;;;29.75;16.83;;;;;;;;;;5074803;28;20036;-38
2022/08/16 03:48:17;;;;;;;27.38;16.98;;;;;;;;;;5061601;28;20047;-38
2022/08/16 03:50:44;;;;;;;25.53;15.70;;;;;;;;;;5062543;28;20037;-39
2022/08/16 03:53:10;;;;;;;27.63;16.85;;;;;;;;;;5068224;28;20048;-39
2022/08/16 03:55:37;;;;;;;27.15;17.17;;;;;;;;;;5063932;28;20036;-39
2022/08/16 03:58:03;;;;;;;31.50;17.40;;;;;;;;;;5033768;28;20049;-38
2022/08/16 04:00:31;;;;;;;30.77;17.20;;;;;;;;;;5071334;28;20027;-39
2022/08/16 04:03:01;;;;;;;32.67;18.17;;;;;;;;;;5062231;28;20044;-39
2022/08/16 04:05:27;;;;;;;26.98;16.77;;;;;;;;;;5062037;28;20044;-38
2022/08/16 04:07:54;;;;;;;30.42;18.13;;;;;;;;;;5064208;28;20104;-38
2022/08/16 04:10:20;;;;;;;30.20;16.95;;;;;;;;;;5053676;28;20496;-39
2022/08/16 04:12:47;;;;;;;33.60;18.85;;;;;;;;;;5054869;28;20611;-38
2022/08/16 04:15:16;;;;;;;30.03;18.90;;;;;;;;;;5067598;28;20041;-39
2022/08/16 04:17:43;;;;;;;32.95;19.77;;;;;;;;;;5063387;28;20048;-39
2022/08/16 04:20:12;;;;;;;31.10;19.88;;;;;;;;;;5076347;28;22112;-39
2022/08/16 04:22:39;;;;;;;33.95;20.75;;;;;;;;;;5060460;28;20036;-40
2022/08/16 04:25:06;;;;;;;31.65;19.75;;;;;;;;;;5077230;28;20060;-39
2022/08/16 04:27:33;;;;;;;36.67;21.00;;;;;;;;;;5058147;28;20055;-39
2022/08/16 04:29:59;;;;;;;34.95;20.90;;;;;;;;;;5063778;28;20044;-39
2022/08/16 04:32:26;;;;;;;33.45;21.02;;;;;;;;;;5064366;28;20059;-40
2022/08/16 04:34:54;;;;;;;37.05;20.88;;;;;;;;;;5052577;28;20134;-39
2022/08/16 04:37:20;;;;;;;35.75;22.17;;;;;;;;;;5067817;28;20044;-40
2022/08/16 04:39:47;;;;;;;40.47;22.33;;;;;;;;;;5067555;28;20044;-39
2022/08/16 04:42:13;;;;;;;38.33;22.77;;;;;;;;;;5081134;28;20040;-38
2022/08/16 04:44:40;;;;;;;32.63;21.02;;;;;;;;;;5071853;28;20113;-40
2022/08/16 04:47:06;;;;;;;38.10;22.17;;;;;;;;;;5075865;28;20040;-39
2022/08/16 04:49:33;;;;;;;37.95;21.17;;;;;;;;;;5047340;28;20052;-40
2022/08/16 04:52:01;;;;;;;41.47;23.00;;;;;;;;;;5072799;28;20493;-41
2022/08/16 04:54:27;;;;;;;37.78;22.55;;;;;;;;;;5060231;28;20040;-41
2022/08/16 04:56:54;;;;;;;34.88;21.65;;;;;;;;;;5071259;28;20040;-40
2022/08/16 04:59:20;;;;;;;37.40;21.88;;;;;;;;;;5049730;28;20622;-41
2022/08/16 05:01:47;;;;;;;37.05;22.92;;;;;;;;;;5067172;28;20055;-40
2022/08/16 05:04:13;;;;;;;36.60;22.50;;;;;;;;;;5053351;28;20036;-40
2022/08/16 05:06:40;;;;;;;38.90;22.38;;;;;;;;;;5065173;28;20460;-41
2022/08/16 05:09:08;;;;;;;41.17;23.50;;;;;;;;;;5069120;28;20131;-40
2022/08/16 05:11:34;;;;;;;41.88;23.42;;;;;;;;;;5071418;28;20036;-41
2022/08/16 05:14:02;;;;;;;37.80;22.77;;;;;;;;;;5066902;28;20111;-40
2022/08/16 05:16:30;;;;;;;33.67;21.40;;;;;;;;;;5064369;28;20036;-40
2022/08/16 05:18:58;;;;;;;37.83;23.17;;;;;;;;;;5072775;28;20107;-41
2022/08/16 05:21:25;;;;;;;39.60;23.15;;;;;;;;;;5060150;28;20052;-41
2022/08/16 05:23:52;;;;;;;36.67;22.60;;;;;;;;;;5077825;28;20040;-40
2022/08/16 05:26:20;;;;;;;37.08;22.20;;;;;;;;;;5059729;28;20047;-41
2022/08/16 05:28:47;;;;;;;39.27;22.67;;;;;;;;;;5062569;28;20059;-41
2022/08/16 05:31:14;;;;;;;37.92;22.80;;;;;;;;;;5080932;28;20048;-40
2022/08/16 05:33:41;;;;;;;38.50;22.88;;;;;;;;;;5067431;28;20067;-41
2022/08/16 05:36:08;;;;;;;39.85;22.55;;;;;;;;;;5072654;28;20033;-40
2022/08/16 05:38:35;;;;;;;38.15;23.13;;;;;;;;;;5063602;28;20590;-40
2022/08/16 05:41:02;;;;;;;37.67;23.17;;;;;;;;;;5078882;28;20048;-40
2022/08/16 05:43:30;;;;;;;41.92;24.02;;;;;;;;;;5049922;28;20037;-41
2022/08/16 05:46:00;;;;;;;38.70;23.52;;;;;;;;;;5070690;28;20037;-40
2022/08/16 05:48:27;;;;;;;40.30;23.30;;;;;;;;;;5060412;28;20043;-40
2022/08/16 05:50:54;;;;;;;41.42;23.55;;;;;;;;;;5079523;28;20097;-40
2022/08/16 05:53:20;;;;;;;41.73;24.20;;;;;;;;;;5073718;28;20032;-44
2022/08/16 05:55:47;;;;;;;40.95;23.77;;;;;;;;;;5060018;28;20043;-40
2022/08/16 05:58:13;;;;;;;35.63;21.70;;;;;;;;;;5068883;28;20059;-41
2022/08/16 06:00:41;;;;;;;35.55;21.65;;;;;;;;;;5062297;28;20100;-41
2022/08/16 06:03:08;;;;;;;35.65;22.55;;;;;;;;;;5082324;28;20855;-41
2022/08/16 06:05:34;;;;;;;36.93;21.80;;;;;;;;;;5066493;28;20033;-37
2022/08/16 06:08:01;;;;;;;34.65;20.75;;;;;;;;;;5065392;28;20238;-40
2022/08/16 06:10:27;;;;;;;38.22;22.55;;;;;;;;;;5062528;28;20051;-41
2022/08/16 06:12:54;;;;;;;39.38;22.27;;;;;;;;;;5075639;28;20540;-40
2022/08/16 06:15:20;;;;;;;35.90;21.98;;;;;;;;;;5062132;28;20474;-41
2022/08/16 06:17:48;;;;;;;38.83;23.50;;;;;;;;;;5076823;28;20044;-41
2022/08/16 06:20:16;;;;;;;42.60;23.80;;;;;;;;;;5052857;28;20309;-41
2022/08/16 06:22:44;;;;;;;41.72;24.52;;;;;;;;;;5075195;28;20044;-42
2022/08/16 06:25:11;;;;;;;37.97;22.48;;;;;;;;;;5071186;28;20112;-40
2022/08/16 06:27:38;;;;;;;40.10;23.95;;;;;;;;;;5071827;28;20093;-41
2022/08/16 06:30:05;;;;;;;40.87;23.03;;;;;;;;;;5051116;28;20066;-42
2022/08/16 06:32:32;;;;;;;35.78;22.27;;;;;;;;;;5063922;28;20029;-40
2022/08/16 06:34:59;;;;;;;36.47;22.70;;;;;;;;;;5047362;28;20132;-41
2022/08/16 06:37:26;;;;;;;37.35;22.27;;;;;;;;;;5058552;28;20534;-40
2022/08/16 06:39:52;;;;;;;35.40;21.23;;;;;;;;;;5071500;28;20403;-42
2022/08/16 06:42:19;;;;;;;42.63;24.00;;;;;;;;;;5076185;28;20028;-40
2022/08/16 06:44:46;;;;;;;37.08;21.65;;;;;;;;;;5068495;28;20105;-40
2022/08/16 06:47:12;;;;;;;40.17;24.25;;;;;;;;;;5066275;28;20067;-41
2022/08/16 06:49:39;;;;;;;40.63;23.70;;;;;;;;;;5073844;28;20074;-40
2022/08/16 06:52:07;;;;;;;35.45;21.60;;;;;;;;;;5068244;28;20028;-40
2022/08/16 06:54:34;;;;;;;40.57;24.17;;;;;;;;;;5062995;28;20051;-40
2022/08/16 06:57:00;;;;;;;42.95;24.25;;;;;;;;;;5061366;28;20036;-40
2022/08/16 06:59:27;;;;;;;35.95;22.40;;;;;;;;;;5060459;28;20051;-40
2022/08/16 07:01:54;;;;;;;35.83;22.08;;;;;;;;;;5074525;28;20528;-40
2022/08/16 07:04:20;;;;;;;39.88;22.60;;;;;;;;;;5053330;28;20059;-42
2022/08/16 07:06:47;;;;;;;39.77;22.50;;;;;;;;;;5060680;28;20041;-40
2022/08/16 07:09:15;;;;;;;40.67;24.42;;;;;;;;;;5058456;28;20810;-38
2022/08/16 07:11:42;;;;;;;45.03;23.58;;;;;;;;;;5072544;28;20097;-41
2022/08/16 07:14:08;;;;;;;40.15;23.92;;;;;;;;;;5063725;28;20043;-41
2022/08/16 07:16:34;;;;;;;39.88;23.73;;;;;;;;;;5065856;28;20044;-40
2022/08/16 07:19:01;;;;;;;47.47;26.20;;;;;;;;;;5058853;28;20044;-39
2022/08/16 07:21:28;;;;;;;46.38;25.25;;;;;;;;;;5065455;28;20263;-41
2022/08/16 07:23:54;;;;;;;41.60;24.02;;;;;;;;;;5063492;28;20044;-39
2022/08/16 07:26:23;;;;;;;46.58;25.95;;;;;;;;;;5060480;28;20204;-39
2022/08/16 07:28:50;;;;;;;48.47;26.55;;;;;;;;;;5063722;28;20045;-39
2022/08/16 07:31:17;;;;;;;44.83;26.47;;;;;;;;;;5081598;28;20070;-39
2022/08/16 07:33:44;;;;;;;46.17;26.83;;;;;;;;;;5056799;28;20040;-40
2022/08/16 07:36:12;;;;;;;46.33;25.60;;;;;;;;;;5055900;28;20043;-41
2022/08/16 07:38:39;;;;;;;42.92;25.63;;;;;;;;;;5052157;28;20040;-40
2022/08/16 07:41:05;;;;;;;46.47;25.30;;;;;;;;;;5066222;28;20402;-40
2022/08/16 07:43:34;;;;;;;45.90;26.00;;;;;;;;;;5054019;28;20037;-39
2022/08/16 07:46:01;;;;;;;46.92;26.70;;;;;;;;;;5073452;28;20036;-39
2022/08/16 07:48:27;;;;;;;53.90;27.00;;;;;;;;;;5063506;28;20048;-39
2022/08/16 07:50:55;;;;;;;46.63;27.45;;;;;;;;;;5071953;28;20372;-40
2022/08/16 07:53:21;;;;;;;52.42;27.60;;;;;;;;;;5063070;28;20036;-41
2022/08/16 07:55:48;;;;;;;46.33;25.57;;;;;;;;;;5069789;28;20525;-39
2022/08/16 07:58:16;;;;;;;55.45;26.27;;;;;;;;;;5058688;28;20414;-40
2022/08/16 08:00:44;;;;;;;48.70;26.35;;;;;;;;;;5067859;28;20102;-40
2022/08/16 08:03:10;;;;;;;49.58;26.35;;;;;;;;;;5063727;28;20090;-40
2022/08/16 08:05:38;;;;;;;43.63;25.70;;;;;;;;;;4343067;28;10023218;-40
2022/08/16 08:08:05;;;;;;;48.33;25.33;;;;;;;;;;5061243;28;20076;-40
2022/08/16 08:10:32;;;;;;;48.40;25.33;;;;;;;;;;5058880;28;20051;-40
2022/08/16 08:12:58;;;;;;;41.47;23.30;;;;;;;;;;5071645;28;20032;-42
2022/08/16 08:15:26;;;;;;;41.70;24.35;;;;;;;;;;5053976;28;20123;-42
2022/08/16 08:17:54;;;;;;;44.17;24.08;;;;;;;;;;5069823;28;20905;-40
2022/08/16 08:20:21;;;;;;;38.35;22.98;;;;;;;;;;5061141;28;20043;-39
2022/08/16 08:22:50;;;;;;;33.67;20.63;;;;;;;;;;5064470;28;20117;-41
2022/08/16 08:25:19;;;;;;;43.35;22.60;;;;;;;;;;5063328;28;20072;-42
2022/08/16 08:27:46;;;;;;;39.45;23.60;;;;;;;;;;4687683;27;10000494;-39
2022/08/16 08:30:14;;;;;;;36.90;22.67;;;;;;;;;;5032078;28;20104;-39
2022/08/16 08:32:41;;;;;;;40.85;23.27;;;;;;;;;;5059804;28;20040;-40
2022/08/16 08:35:10;;;;;;;38.45;22.38;;;;;;;;;;5047225;28;20042;-42
2022/08/16 08:37:37;;;;;;;40.25;24.02;;;;;;;;;;5058116;28;20089;-40
2022/08/16 08:40:04;;;;;;;40.85;23.15;;;;;;;;;;5049660;28;20273;-40
2022/08/16 08:42:31;;;;;;;40.57;22.87;;;;;;;;;;5050121;28;20036;-40
2022/08/16 08:44:57;;;;;;;39.72;22.60;;;;;;;;;;5066546;28;20093;-40
2022/08/16 08:47:24;;;;;;;33.78;20.90;;;;;;;;;;5043503;28;20036;-39
2022/08/16 08:49:50;;;;;;;30.85;18.42;;;;;;;;;;5053174;28;20040;-40
2022/08/16 08:52:19;;;;;;;31.88;19.63;;;;;;;;;;5054821;28;20127;-40
2022/08/16 08:54:46;;;;;;;27.87;17.37;;;;;;;;;;5075953;28;20025;-39
2022/08/16 08:57:12;;;;;;;29.20;18.38;;;;;;;;;;5073759;28;20095;-39
2022/08/16 08:59:39;;;;;;;24.20;16.92;;;;;;;;;;5057241;28;20748;-39
2022/08/16 09:02:07;;;;;;;27.52;16.23;;;;;;;;;;5063405;28;20075;-39
2022/08/16 09:04:34;;;;;;;26.05;16.70;;;;;;;;;;5044523;28;20050;-40
2022/08/16 09:07:02;;;;;;;24.97;16.07;;;;;;;;;;5068395;28;20033;-40
2022/08/16 09:09:31;;;;;;;25.45;16.10;;;;;;;;;;5061804;28;20032;-39
2022/08/16 09:11:57;;;;;;;24.40;15.95;;;;;;;;;;5074816;28;20049;-44
2022/08/16 09:14:24;;;;;;;23.80;16.40;;;;;;;;;;5075911;28;20056;-39
2022/08/16 09:16:51;;;;;;;25.75;15.73;;;;;;;;;;5068906;28;20791;-39
2022/08/16 09:19:17;;;;;;;29.27;15.83;;;;;;;;;;5069292;28;20048;-41
2022/08/16 09:21:44;;;;;;;26.30;16.27;;;;;;;;;;5065039;28;20401;-39
2022/08/16 09:24:10;;;;;;;23.65;15.60;;;;;;;;;;5082980;28;20509;-40
2022/08/16 09:26:39;;;;;;;26.10;17.02;;;;;;;;;;5059237;28;20133;-42
2022/08/16 09:29:06;;;;;;;26.75;16.50;;;;;;;;;;5062541;28;20045;-41
2022/08/16 09:31:32;;;;;;;27.13;15.50;;;;;;;;;;5056184;28;20040;-40
2022/08/16 09:34:00;;;;;;;26.00;15.77;;;;;;;;;;5066336;28;20079;-39
2022/08/16 09:36:28;;;;;;;21.90;14.63;;;;;;;;;;5059076;28;20104;-41
2022/08/16 09:38:55;;;;;;;24.30;14.98;;;;;;;;;;5066357;28;20044;-39
2022/08/16 09:41:22;;;;;;;21.75;15.23;;;;;;;;;;5061254;28;20036;-39
2022/08/16 09:43:51;;;;;;;25.23;15.27;;;;;;;;;;5065508;28;20706;-42
2022/08/16 09:46:17;;;;;;;24.70;15.25;;;;;;;;;;5073824;28;20493;-39
2022/08/16 09:48:44;;;;;;;24.33;15.40;;;;;;;;;;5072411;28;20123;-41
2022/08/16 09:51:11;;;;;;;24.70;14.85;;;;;;;;;;5058884;28;20028;-40
2022/08/16 09:53:38;;;;;;;23.63;15.02;;;;;;;;;;5064409;28;20044;-40
2022/08/16 09:56:08;;;;;;;24.03;15.87;;;;;;;;;;5068359;28;20048;-42
2022/08/16 09:58:34;;;;;;;25.60;15.65;;;;;;;;;;5067130;28;20109;-41
2022/08/16 10:01:02;;;;;;;23.88;15.52;;;;;;;;;;5058068;28;20036;-40
2022/08/16 10:03:28;;;;;;;20.88;13.82;;;;;;;;;;5070278;28;20074;-40
2022/08/16 10:05:55;;;;;;;21.85;14.57;;;;;;;;;;5063353;28;20041;-39
2022/08/16 10:08:22;;;;;;;20.27;13.43;;;;;;;;;;5077970;28;20047;-39
2022/08/16 10:13:29;;;;;;;21.40;13.60;;;;;;;;;;5069333;28;20075;-40
2022/08/16 10:15:58;;;;;;;23.45;14.63;;;;;;;;;;5063180;28;20064;-40
2022/08/16 10:18:28;;;;;;;21.60;15.15;;;;;;;;;;5075230;28;20043;-39
2022/08/16 10:20:55;;;;;;;19.17;14.20;;;;;;;;;;5068984;28;20105;-40
2022/08/16 10:23:22;;;;;;;22.63;14.55;;;;;;;;;;5083990;28;20044;-40
2022/08/16 10:25:50;;;;;;;20.30;13.55;;;;;;;;;;5065679;28;20628;-39
2022/08/16 10:28:17;;;;;;;18.08;13.15;;;;;;;;;;4706198;27;9999874;-41
2022/08/16 10:30:44;;;;;;;21.93;14.23;;;;;;;;;;5061186;28;20505;-41
2022/08/16 10:33:12;;;;;;;19.35;14.18;;;;;;;;;;5051861;28;20453;-40
2022/08/16 10:35:40;;;;;;;19.00;13.18;;;;;;;;;;5056670;28;20094;-40
2022/08/16 10:38:07;;;;;;;19.95;13.18;;;;;;;;;;5071058;28;20044;-40
2022/08/16 10:40:33;;;;;;;21.92;14.07;;;;;;;;;;5057473;28;20048;-40
2022/08/16 10:43:00;;;;;;;22.17;14.63;;;;;;;;;;5064946;28;20089;-42
2022/08/16 10:45:27;;;;;;;22.23;14.35;;;;;;;;;;5072468;28;20114;-39
2022/08/16 10:47:56;;;;;;;19.48;14.07;;;;;;;;;;5062572;28;20782;-42
2022/08/16 10:50:23;;;;;;;20.75;13.90;;;;;;;;;;5063598;28;20060;-42
2022/08/16 10:52:52;;;;;;;21.67;14.60;;;;;;;;;;5061591;28;20748;-41
2022/08/16 10:55:18;;;;;;;19.97;13.57;;;;;;;;;;5069613;28;20047;-42
2022/08/16 10:57:45;;;;;;;23.25;15.48;;;;;;;;;;5053236;28;20041;-41
2022/08/16 11:00:13;;;;;;;20.55;13.75;;;;;;;;;;5067785;28;20040;-39
2022/08/16 11:02:42;;;;;;;25.05;16.13;;;;;;;;;;5059058;28;20036;-43
2022/08/16 11:05:11;;;;;;;19.05;13.85;;;;;;;;;;5071539;28;20036;-40
2022/08/16 11:07:39;;;;;;;22.37;14.30;;;;;;;;;;5059194;28;20062;-46
2022/08/16 11:10:07;;;;;;;24.02;14.75;;;;;;;;;;5073389;28;20062;-41
2022/08/16 11:12:34;;;;;;;21.92;14.88;;;;;;;;;;5047425;28;20097;-41
2022/08/16 11:15:01;;;;;;;18.65;12.40;;;;;;;;;;5068002;28;20071;-40
2022/08/16 11:17:27;;;;;;;17.52;11.93;;;;;;;;;;5058650;28;20046;-39
2022/08/16 11:19:54;;;;;;;22.60;12.57;;;;;;;;;;5074003;28;20097;-39
2022/08/16 11:22:21;;;;;;;19.55;12.15;;;;;;;;;;5064005;28;20098;-40
2022/08/16 11:24:47;;;;;;;16.13;10.52;;;;;;;;;;5067682;28;20058;-41
2022/08/16 11:27:18;;;;;;;16.92;10.68;;;;;;;;;;5058981;28;20375;-41
2022/08/16 11:29:48;;;;;;;12.65;8.70;;;;;;;;;;5066143;28;20052;-40
2022/08/16 11:32:16;;;;;;;14.33;8.77;;;;;;;;;;5064642;28;20046;-40
2022/08/16 11:34:42;;;;;;;12.50;8.63;;;;;;;;;;5056375;28;20047;-40
2022/08/16 11:37:09;;;;;;;13.32;9.32;;;;;;;;;;5064438;28;20116;-41
2022/08/16 11:39:36;;;;;;;15.93;8.73;;;;;;;;;;5060138;28;20044;-39
2022/08/16 11:42:03;;;;;;;14.32;9.85;;;;;;;;;;5080259;28;20040;-45
2022/08/16 11:44:31;;;;;;;17.73;10.30;;;;;;;;;;5060070;28;20049;-39
2022/08/16 11:46:57;;;;;;;17.65;10.93;;;;;;;;;;5050642;28;20066;-41
2022/08/16 11:49:24;;;;;;;15.93;11.10;;;;;;;;;;5069764;28;20036;-40
2022/08/16 11:51:51;;;;;;;16.27;9.48;;;;;;;;;;5058864;28;20048;-40
2022/08/16 11:54:18;;;;;;;13.70;9.20;;;;;;;;;;5061730;28;20300;-46
2022/08/16 11:56:45;;;;;;;13.10;9.37;;;;;;;;;;5050767;28;20322;-41
2022/08/16 11:59:11;;;;;;;16.65;9.90;;;;;;;;;;5048729;28;20047;-40
2022/08/16 12:01:39;;;;;;;15.02;10.07;;;;;;;;;;5047023;28;20041;-42
2022/08/16 12:04:06;;;;;;;16.77;10.82;;;;;;;;;;5058560;28;20062;-41
2022/08/16 12:06:33;;;;;;;15.30;9.93;;;;;;;;;;5061523;28;20404;-41
2022/08/16 12:09:00;;;;;;;17.40;10.60;;;;;;;;;;5074194;28;20043;-40
2022/08/16 12:11:26;;;;;;;13.80;9.80;;;;;;;;;;5060180;28;20072;-40
2022/08/16 12:13:53;;;;;;;13.05;7.70;;;;;;;;;;5060440;28;20036;-41
2022/08/16 12:16:20;;;;;;;12.60;7.90;;;;;;;;;;5061245;28;20036;-41
2022/08/16 12:18:48;;;;;;;14.77;9.15;;;;;;;;;;5070527;28;20095;-39
2022/08/16 12:21:15;;;;;;;12.67;8.60;;;;;;;;;;5058975;28;20064;-40
2022/08/16 12:23:42;;;;;;;11.45;7.13;;;;;;;;;;5062188;28;20032;-41
2022/08/16 12:26:10;;;;;;;11.23;6.68;;;;;;;;;;5064275;28;20634;-39
2022/08/16 12:28:37;;;;;;;10.07;6.55;;;;;;;;;;5070204;28;20040;-39
2022/08/16 12:31:04;;;;;;;14.00;7.25;;;;;;;;;;5064647;28;20079;-39
2022/08/16 12:33:31;;;;;;;13.07;6.60;;;;;;;;;;5050539;28;20036;-42
2022/08/16 12:35:59;;;;;;;8.93;6.00;;;;;;;;;;5064519;28;20040;-40
2022/08/16 12:38:26;;;;;;;9.85;5.65;;;;;;;;;;5060547;28;20112;-39
2022/08/16 12:40:53;;;;;;;9.95;6.15;;;;;;;;;;5063736;28;20036;-39
2022/08/16 12:43:21;;;;;;;13.70;8.43;;;;;;;;;;5065294;28;20093;-41
2022/08/16 12:45:50;;;;;;;14.37;8.90;;;;;;;;;;5063102;28;20048;-39
2022/08/16 12:51:03;;;;;;;12.15;8.00;;;;;;;;;;5069737;28;20064;-39
2022/08/16 12:53:34;;;;;;;12.03;7.40;;;;;;;;;;4503697;28;10001892;-42
2022/08/16 12:56:02;;;;;;;11.18;6.63;;;;;;;;;;5062400;28;20044;-39
2022/08/16 12:58:29;;;;;;;10.53;7.07;;;;;;;;;;5055338;28;20086;-40
2022/08/16 13:00:55;;;;;;;11.18;7.43;;;;;;;;;;5055206;28;21785;-40
2022/08/16 13:03:22;;;;;;;12.85;7.50;;;;;;;;;;5069277;28;20036;-40
2022/08/16 13:05:49;;;;;;;11.18;6.60;;;;;;;;;;5070290;28;20036;-39
2022/08/16 13:08:18;;;;;;;12.63;7.95;;;;;;;;;;5056720;28;20066;-40
2022/08/16 13:10:47;;;;;;;12.23;8.00;;;;;;;;;;5066235;28;20067;-40
2022/08/16 13:13:15;;;;;;;13.32;8.75;;;;;;;;;;5060164;28;20048;-39
2022/08/16 13:15:43;;;;;;;15.38;9.60;;;;;;;;;;5074932;28;20104;-43
2022/08/16 13:18:09;;;;;;;15.63;9.75;;;;;;;;;;5067961;28;20040;-39
2022/08/16 13:20:36;;;;;;;12.70;8.30;;;;;;;;;;4701970;28;9999698;-39
2022/08/16 13:23:04;;;;;;;15.27;9.85;;;;;;;;;;5055109;28;20032;-41
2022/08/16 13:25:34;;;;;;;14.65;9.80;;;;;;;;;;5054059;28;20040;-40
2022/08/16 13:28:00;;;;;;;12.90;8.55;;;;;;;;;;5069472;28;20040;-40
2022/08/16 13:30:28;;;;;;;13.07;8.77;;;;;;;;;;5056386;28;20028;-39
2022/08/16 13:32:54;;;;;;;10.73;7.43;;;;;;;;;;5066309;28;20151;-40
2022/08/16 13:35:22;;;;;;;10.35;6.93;;;;;;;;;;5055101;28;20036;-39
2022/08/16 13:37:48;;;;;;;9.95;6.07;;;;;;;;;;5061217;28;20078;-39
2022/08/16 13:40:15;;;;;;;10.95;7.35;;;;;;;;;;5058658;28;20043;-39
2022/08/16 13:42:44;;;;;;;12.27;7.97;;;;;;;;;;5056842;28;20046;-39
2022/08/16 13:45:12;;;;;;;14.85;9.65;;;;;;;;;;5064793;28;20052;-41
2022/08/16 13:47:39;;;;;;;16.35;9.57;;;;;;;;;;5043738;28;20048;-46
2022/08/16 13:50:07;;;;;;;14.23;8.30;;;;;;;;;;5061024;28;20048;-41
2022/08/16 13:52:34;;;;;;;12.75;8.57;;;;;;;;;;5055739;28;20051;-39
2022/08/16 13:55:00;;;;;;;13.87;9.87;;;;;;;;;;5059669;28;20100;-40
2022/08/16 13:57:27;;;;;;;14.55;10.57;;;;;;;;;;5061904;28;20032;-42
2022/08/16 13:59:55;;;;;;;15.20;10.15;;;;;;;;;;5059141;28;20040;-42
2022/08/16 14:02:22;;;;;;;15.10;10.80;;;;;;;;;;5063010;28;20100;-41
2022/08/16 14:04:48;;;;;;;14.60;9.18;;;;;;;;;;5046313;28;20044;-40
2022/08/16 14:07:15;;;;;;;12.03;8.47;;;;;;;;;;5056808;28;20092;-41
2022/08/16 14:09:43;;;;;;;14.52;9.57;;;;;;;;;;5057284;28;20043;-41
2022/08/16 14:12:16;;;;;;;15.30;10.38;;;;;;;;;;5052928;28;20040;-42
2022/08/16 14:14:43;;;;;;;16.33;9.80;;;;;;;;;;5062137;28;20028;-39
2022/08/16 14:17:11;;;;;;;15.15;10.10;;;;;;;;;;5061474;28;20101;-40
2022/08/16 14:19:37;;;;;;;15.77;10.80;;;;;;;;;;5052804;28;20731;-40
2022/08/16 14:22:04;;;;;;;16.88;11.77;;;;;;;;;;4998553;28;20112;-40
2022/08/16 14:24:30;;;;;;;19.77;12.82;;;;;;;;;;5032971;28;20055;-40
2022/08/16 14:26:57;;;;;;;20.00;12.70;;;;;;;;;;5071102;28;20047;-40